createdAt,value
2022-11-14T00:01:00.580Z,7.63
2022-11-14T00:03:27.019Z,7.60
2022-11-14T00:05:53.330Z,7.54
2022-11-14T00:08:19.681Z,7.48
2022-11-14T00:10:46.026Z,7.46
2022-11-14T00:13:12.364Z,7.45
2022-11-14T00:15:38.677Z,7.34
2022-11-14T00:18:05.034Z,7.29
2022-11-14T00:20:31.348Z,7.25
2022-11-14T00:22:57.707Z,7.15
2022-11-14T00:25:24.041Z,7.11
2022-11-14T00:27:50.356Z,7.07
2022-11-14T00:30:16.711Z,7.02
2022-11-14T00:32:43.025Z,7.03
2022-11-14T00:35:09.379Z,7.06
2022-11-14T00:37:35.728Z,7.02
2022-11-14T00:40:02.037Z,6.98
2022-11-14T00:42:28.388Z,6.97
2022-11-14T00:44:54.720Z,6.96
2022-11-14T00:47:21.073Z,6.93
2022-11-14T00:49:47.383Z,6.94
2022-11-14T00:52:13.710Z,6.95
2022-11-14T00:54:40.048Z,6.96
2022-11-14T00:57:06.364Z,6.97
2022-11-14T00:59:32.685Z,6.97
2022-11-14T01:01:59.023Z,6.99
2022-11-14T01:04:25.520Z,6.98
2022-11-14T01:06:51.838Z,6.97
2022-11-14T01:09:18.246Z,7.01
2022-11-14T01:11:44.503Z,7.05
2022-11-14T01:14:10.820Z,7.09
2022-11-14T01:16:37.220Z,7.11
2022-11-14T01:19:04.234Z,7.13
2022-11-14T01:21:30.547Z,7.15
2022-11-14T01:23:56.864Z,7.14
2022-11-14T01:26:23.226Z,7.15
2022-11-14T01:28:49.555Z,7.15
2022-11-14T01:31:15.951Z,7.16
2022-11-14T01:33:42.403Z,7.17
2022-11-14T01:36:08.687Z,7.20
2022-11-14T01:38:35.023Z,7.22
2022-11-14T01:41:01.336Z,7.23
2022-11-14T01:43:27.680Z,7.24
2022-11-14T01:45:54.019Z,7.26
2022-11-14T01:48:20.350Z,7.27
2022-11-14T01:50:46.676Z,7.28
2022-11-14T01:53:13.006Z,7.28
2022-11-14T01:55:39.321Z,7.29
2022-11-14T01:58:05.637Z,7.30
2022-11-14T02:00:31.964Z,7.29
2022-11-14T02:02:58.292Z,7.28
2022-11-14T02:05:24.608Z,7.27
2022-11-14T02:07:50.982Z,7.27
2022-11-14T02:10:17.319Z,7.28
2022-11-14T02:12:43.654Z,7.26
2022-11-14T02:15:09.978Z,7.28
2022-11-14T02:17:36.304Z,7.29
2022-11-14T02:20:05.359Z,7.28
2022-11-14T02:22:29.004Z,7.29
2022-11-14T02:24:55.339Z,7.31
2022-11-14T02:27:21.673Z,7.31
2022-11-14T02:29:47.998Z,7.30
2022-11-14T02:32:14.333Z,7.29
2022-11-14T02:34:40.666Z,7.30
2022-11-14T02:37:06.982Z,7.29
2022-11-14T02:39:33.317Z,7.27
2022-11-14T02:41:59.666Z,7.25
2022-11-14T02:44:26.009Z,7.24
2022-11-14T02:46:52.333Z,7.20
2022-11-14T02:49:18.706Z,7.19
2022-11-14T02:51:45.080Z,7.19
2022-11-14T02:54:11.488Z,7.18
2022-11-14T02:56:37.812Z,7.18
2022-11-14T02:59:04.169Z,7.17
2022-11-14T03:01:30.550Z,7.17
2022-11-14T03:03:56.837Z,7.18
2022-11-14T03:06:23.181Z,7.17
2022-11-14T03:08:49.495Z,7.17
2022-11-14T03:11:15.832Z,7.15
2022-11-14T03:13:42.175Z,7.13
2022-11-14T03:16:08.491Z,7.11
2022-11-14T03:18:34.851Z,7.10
2022-11-14T03:21:01.196Z,7.10
2022-11-14T03:23:27.528Z,7.08
2022-11-14T03:25:53.873Z,7.07
2022-11-14T03:28:20.191Z,7.04
2022-11-14T03:30:46.539Z,7.04
2022-11-14T03:33:12.908Z,7.02
2022-11-14T03:35:39.254Z,7.03
2022-11-14T03:38:05.570Z,7.02
2022-11-14T03:40:31.894Z,7.01
2022-11-14T03:42:58.245Z,6.99
2022-11-14T03:45:24.607Z,6.99
2022-11-14T03:47:50.918Z,6.98
2022-11-14T03:50:17.289Z,6.97
2022-11-14T03:52:43.620Z,6.96
2022-11-14T03:55:09.959Z,6.96
2022-11-14T03:57:36.273Z,6.94
2022-11-14T04:00:02.619Z,6.94
2022-11-14T04:02:28.988Z,6.93
2022-11-14T04:04:55.324Z,6.94
2022-11-14T04:07:21.647Z,6.94
2022-11-14T04:09:48.081Z,6.95
2022-11-14T04:12:15.923Z,6.90
2022-11-14T04:14:40.736Z,6.86
2022-11-14T04:17:07.103Z,6.85
2022-11-14T04:19:33.437Z,6.81
2022-11-14T04:21:59.752Z,6.74
2022-11-14T04:24:26.134Z,6.69
2022-11-14T04:26:52.426Z,6.66
2022-11-14T04:29:18.759Z,6.60
2022-11-14T04:31:45.109Z,6.59
2022-11-14T04:34:11.458Z,6.57
2022-11-14T04:36:37.787Z,6.57
2022-11-14T04:39:04.105Z,6.56
2022-11-14T04:41:30.488Z,6.60
2022-11-14T04:43:56.801Z,6.60
2022-11-14T04:46:23.135Z,6.64
2022-11-14T04:48:49.485Z,6.69
2022-11-14T04:51:15.822Z,6.73
2022-11-14T04:53:42.156Z,6.73
2022-11-14T04:56:08.492Z,6.71
2022-11-14T04:58:34.830Z,6.70
2022-11-14T05:01:01.179Z,6.72
2022-11-14T05:03:27.464Z,6.74
2022-11-14T05:05:53.805Z,6.76
2022-11-14T05:08:20.141Z,6.76
2022-11-14T05:10:46.504Z,6.71
2022-11-14T05:13:12.824Z,6.65
2022-11-14T05:15:39.169Z,6.60
2022-11-14T05:18:05.486Z,6.56
2022-11-14T05:20:31.804Z,6.56
2022-11-14T05:22:58.143Z,6.61
2022-11-14T05:25:24.502Z,6.64
2022-11-14T05:27:50.869Z,6.63
2022-11-14T05:30:17.264Z,6.59
2022-11-14T05:32:43.609Z,6.60
2022-11-14T05:35:09.941Z,6.59
2022-11-14T05:37:36.316Z,6.50
2022-11-14T05:40:02.676Z,6.46
2022-11-14T05:42:28.997Z,6.43
2022-11-14T05:44:55.317Z,6.41
2022-11-14T05:47:21.681Z,6.38
2022-11-14T05:49:48.012Z,6.34
2022-11-14T05:52:14.332Z,6.31
2022-11-14T05:54:40.714Z,6.32
2022-11-14T05:57:07.050Z,6.32
2022-11-14T05:59:33.361Z,6.25
2022-11-14T06:01:59.829Z,6.23
2022-11-14T06:04:26.111Z,6.23
2022-11-14T06:06:52.493Z,6.23
2022-11-14T06:09:18.755Z,6.24
2022-11-14T06:11:45.113Z,6.31
2022-11-14T06:14:11.508Z,6.31
2022-11-14T06:16:37.779Z,6.28
2022-11-14T06:19:04.114Z,6.24
2022-11-14T06:21:30.463Z,6.26
2022-11-14T06:23:56.800Z,6.31
2022-11-14T06:26:23.138Z,6.36
2022-11-14T06:28:49.491Z,6.38
2022-11-14T06:31:15.879Z,6.41
2022-11-14T06:33:42.209Z,6.43
2022-11-14T06:36:08.527Z,6.43
2022-11-14T06:38:34.879Z,6.43
2022-11-14T06:41:01.270Z,6.48
2022-11-14T06:43:27.578Z,6.53
2022-11-14T06:45:53.917Z,6.52
2022-11-14T06:48:20.232Z,6.47
2022-11-14T06:50:46.572Z,6.50
2022-11-14T06:53:12.910Z,6.50
2022-11-14T06:55:39.233Z,6.51
2022-11-14T06:58:05.613Z,6.53
2022-11-14T07:00:31.961Z,6.52
2022-11-14T07:02:58.249Z,6.52
2022-11-14T07:05:24.562Z,6.55
2022-11-14T07:07:50.893Z,6.63
2022-11-14T07:10:17.233Z,6.65
2022-11-14T07:12:43.549Z,6.68
2022-11-14T07:15:09.887Z,6.70
2022-11-14T07:17:36.233Z,6.69
2022-11-14T07:20:02.569Z,6.71
2022-11-14T07:22:28.963Z,6.74
2022-11-14T07:24:55.293Z,6.76
2022-11-14T07:27:21.642Z,6.77
2022-11-14T07:29:47.965Z,6.79
2022-11-14T07:32:14.276Z,6.84
2022-11-14T07:34:40.600Z,6.97
2022-11-14T07:37:06.961Z,9.04
2022-11-14T07:39:33.300Z,11.08
2022-11-14T07:41:59.624Z,11.11
2022-11-14T07:44:25.955Z,10.67
2022-11-14T07:46:52.313Z,10.28
2022-11-14T07:49:18.654Z,10.01
2022-11-14T07:51:44.975Z,9.83
2022-11-14T07:54:11.336Z,9.69
2022-11-14T07:56:37.657Z,9.59
2022-11-14T07:59:03.976Z,9.58
2022-11-14T08:01:30.393Z,9.56
2022-11-14T08:03:56.664Z,9.56
2022-11-14T08:06:22.988Z,9.56
2022-11-14T08:08:49.321Z,9.57
2022-11-14T08:11:31.595Z,9.59
2022-11-14T08:13:42.005Z,9.59
2022-11-14T08:16:12.833Z,9.64
2022-11-14T08:18:34.675Z,9.67
2022-11-14T08:21:00.990Z,9.70
2022-11-14T08:23:27.368Z,9.72
2022-11-14T08:25:53.687Z,9.76
2022-11-14T08:28:20.044Z,9.78
2022-11-14T08:30:46.367Z,9.82
2022-11-14T08:33:12.689Z,9.85
2022-11-14T08:35:39.028Z,9.88
2022-11-14T08:38:05.343Z,9.91
2022-11-14T08:40:31.681Z,9.93
2022-11-14T08:42:58.023Z,9.98
2022-11-14T08:45:24.375Z,10.02
2022-11-14T08:47:50.704Z,10.04
2022-11-14T08:50:17.068Z,10.04
2022-11-14T08:52:43.456Z,10.10
2022-11-14T08:55:09.779Z,10.12
2022-11-14T08:57:36.104Z,10.14
2022-11-14T09:00:02.453Z,10.16
2022-11-14T09:02:28.878Z,10.18
2022-11-14T09:04:55.301Z,10.19
2022-11-14T09:07:21.565Z,10.22
2022-11-14T09:09:47.934Z,10.25
2022-11-14T09:12:14.255Z,10.27
2022-11-14T09:14:40.597Z,10.30
2022-11-14T09:17:06.991Z,10.33
2022-11-14T09:19:33.313Z,10.35
2022-11-14T09:21:59.665Z,10.38
2022-11-14T09:24:26.005Z,10.41
2022-11-14T09:26:56.780Z,10.46
2022-11-14T09:29:18.675Z,10.49
2022-11-14T09:31:45.054Z,10.52
2022-11-14T09:34:11.394Z,10.55
2022-11-14T09:36:37.721Z,10.56
2022-11-14T09:39:04.086Z,10.60
2022-11-14T09:41:30.426Z,10.62
2022-11-14T09:43:56.766Z,10.64
2022-11-14T09:46:23.098Z,10.66
2022-11-14T09:48:49.450Z,10.70
2022-11-14T09:51:15.789Z,10.75
2022-11-14T09:53:42.131Z,10.81
2022-11-14T09:56:08.455Z,10.87
2022-11-14T09:58:34.813Z,10.95
2022-11-14T10:01:03.851Z,11.03
2022-11-14T10:03:27.814Z,11.14
2022-11-14T10:05:53.859Z,11.26
2022-11-14T10:08:20.178Z,11.45
2022-11-14T10:10:46.509Z,11.66
2022-11-14T10:13:12.845Z,11.87
2022-11-14T10:15:39.178Z,12.03
2022-11-14T10:18:05.502Z,12.15
2022-11-14T10:20:31.858Z,12.31
2022-11-14T10:23:01.344Z,12.57
2022-11-14T10:25:24.507Z,12.83
2022-11-14T10:27:55.907Z,13.12
2022-11-14T10:30:17.233Z,13.72
2022-11-14T10:32:43.541Z,14.51
2022-11-14T10:35:09.900Z,15.35
2022-11-14T10:37:36.256Z,16.13
2022-11-14T10:40:02.600Z,16.86
2022-11-14T10:42:28.947Z,17.48
2022-11-14T10:44:55.287Z,18.06
2022-11-14T10:47:21.649Z,18.56
2022-11-14T10:49:48.013Z,19.01
2022-11-14T10:52:14.333Z,19.46
2022-11-14T10:54:40.712Z,19.88
2022-11-14T10:57:07.103Z,20.25
2022-11-14T10:59:33.464Z,20.59
2022-11-14T11:01:59.830Z,20.90
2022-11-14T11:04:26.345Z,21.19
2022-11-14T11:09:40.740Z,21.76
2022-11-14T11:12:03.066Z,21.31
2022-11-14T11:14:29.348Z,20.65
2022-11-14T11:16:55.754Z,20.28
2022-11-14T11:19:22.103Z,20.12
2022-11-14T11:21:48.548Z,19.85
2022-11-14T11:24:14.827Z,19.68
2022-11-14T11:26:41.205Z,19.51
2022-11-14T11:29:07.522Z,19.45
2022-11-14T11:31:33.843Z,19.33
2022-11-14T11:34:00.173Z,19.29
2022-11-14T11:36:26.495Z,19.30
2022-11-14T11:38:52.858Z,19.27
2022-11-14T11:41:27.370Z,19.34
2022-11-14T11:43:45.569Z,19.39
2022-11-14T11:46:11.880Z,19.41
2022-11-14T11:48:38.271Z,19.38
2022-11-14T11:51:04.624Z,19.32
2022-11-14T11:53:31.117Z,19.28
2022-11-14T11:55:57.268Z,19.24
2022-11-14T11:58:23.644Z,19.27
2022-11-14T12:00:49.954Z,19.24
2022-11-14T12:03:20.349Z,19.20
2022-11-14T12:05:42.712Z,19.25
2022-11-14T12:08:09.044Z,19.32
2022-11-14T12:10:35.364Z,19.33
2022-11-14T12:13:01.703Z,19.34
2022-11-14T12:15:28.057Z,19.23
2022-11-14T12:17:54.415Z,19.15
2022-11-14T12:20:20.736Z,19.15
2022-11-14T12:22:47.116Z,19.14
2022-11-14T12:25:13.441Z,19.04
2022-11-14T12:27:39.858Z,18.91
2022-11-14T12:30:06.153Z,18.89
2022-11-14T12:32:32.515Z,18.93
2022-11-14T12:34:58.895Z,19.03
2022-11-14T12:37:25.198Z,19.12
2022-11-14T12:39:51.570Z,19.15
2022-11-14T12:42:17.941Z,19.06
2022-11-14T12:44:44.249Z,19.03
2022-11-14T12:47:10.660Z,18.97
2022-11-14T12:49:36.989Z,19.00
2022-11-14T12:52:03.357Z,19.03
2022-11-14T12:54:29.709Z,19.00
2022-11-14T12:56:56.072Z,18.90
2022-11-14T12:59:22.436Z,18.82
2022-11-14T13:01:48.863Z,18.78
2022-11-14T13:04:15.250Z,18.75
2022-11-14T13:06:41.517Z,18.70
2022-11-14T13:09:07.883Z,18.59
2022-11-14T13:11:34.287Z,18.52
2022-11-14T13:14:00.612Z,18.50
2022-11-14T13:16:26.981Z,18.55
2022-11-14T13:18:53.376Z,18.54
2022-11-14T13:21:19.718Z,18.42
2022-11-14T13:23:46.045Z,18.34
2022-11-14T13:26:12.425Z,18.32
2022-11-14T13:28:38.785Z,18.26
2022-11-14T13:31:05.144Z,18.16
2022-11-14T13:33:31.906Z,18.03
2022-11-14T13:36:03.836Z,17.90
2022-11-14T13:38:24.265Z,17.80
2022-11-14T13:40:50.584Z,17.67
2022-11-14T13:43:16.948Z,17.53
2022-11-14T13:45:43.313Z,17.37
2022-11-14T13:48:09.666Z,17.22
2022-11-14T13:50:36.028Z,17.08
2022-11-14T13:53:02.388Z,17.01
2022-11-14T13:55:28.718Z,16.87
2022-11-14T13:57:55.041Z,16.72
2022-11-14T14:00:21.491Z,16.59
2022-11-14T14:02:47.699Z,16.42
2022-11-14T14:05:14.061Z,16.30
2022-11-14T14:07:40.454Z,16.13
2022-11-14T14:10:06.840Z,15.97
2022-11-14T14:12:33.161Z,15.81
2022-11-14T14:14:59.508Z,15.70
2022-11-14T14:17:25.844Z,15.55
2022-11-14T14:19:52.197Z,15.42
2022-11-14T14:22:18.563Z,15.30
2022-11-14T14:24:45.022Z,15.16
2022-11-14T14:27:11.304Z,15.04
2022-11-14T14:29:37.671Z,14.92
2022-11-14T14:32:03.994Z,14.79
2022-11-14T14:34:30.357Z,14.68
2022-11-14T14:36:56.672Z,14.55
2022-11-14T14:39:23.045Z,14.47
2022-11-14T14:41:49.528Z,14.37
2022-11-14T14:44:15.849Z,14.25
2022-11-14T14:46:42.177Z,14.14
2022-11-14T14:49:08.537Z,14.05
2022-11-14T14:51:34.902Z,14.01
2022-11-14T14:54:01.215Z,13.95
2022-11-14T14:56:27.561Z,13.84
2022-11-14T14:58:53.973Z,13.73
2022-11-14T15:01:20.389Z,13.64
2022-11-14T15:03:46.743Z,13.57
2022-11-14T15:06:13.061Z,13.48
2022-11-14T15:08:39.421Z,13.38
2022-11-14T15:11:05.794Z,13.33
2022-11-14T15:13:32.097Z,13.25
2022-11-14T15:15:58.422Z,13.19
2022-11-14T15:18:24.788Z,13.13
2022-11-14T15:20:51.152Z,13.09
2022-11-14T15:23:17.544Z,13.03
2022-11-14T15:25:43.910Z,13.02
2022-11-14T15:28:13.013Z,13.02
2022-11-14T15:30:36.557Z,12.92
2022-11-14T15:33:02.886Z,12.86
2022-11-14T15:35:29.257Z,12.81
2022-11-14T15:37:55.580Z,12.74
2022-11-14T15:40:21.919Z,12.64
2022-11-14T15:42:48.310Z,12.55
2022-11-14T15:45:14.635Z,12.50
2022-11-14T15:47:41.020Z,12.43
2022-11-14T15:50:07.352Z,12.35
2022-11-14T15:52:33.724Z,12.32
2022-11-14T15:55:02.284Z,12.28
2022-11-14T15:57:28.594Z,12.26
2022-11-14T15:59:54.966Z,12.22
2022-11-14T16:02:21.294Z,12.21
2022-11-14T16:04:48.120Z,12.20
2022-11-14T16:07:14.075Z,12.20
2022-11-14T16:09:40.356Z,12.16
2022-11-14T16:12:06.724Z,12.11
2022-11-14T16:14:33.050Z,12.06
2022-11-14T16:16:59.374Z,12.00
2022-11-14T16:19:25.748Z,11.94
2022-11-14T16:21:52.066Z,11.89
2022-11-14T16:24:18.453Z,11.84
2022-11-14T16:26:44.767Z,11.82
2022-11-14T16:29:11.148Z,11.80
2022-11-14T16:31:37.490Z,11.79
2022-11-14T16:34:03.859Z,11.82
2022-11-14T16:36:30.166Z,11.81
2022-11-14T16:38:56.553Z,11.76
2022-11-14T16:41:22.912Z,11.68
2022-11-14T16:43:49.279Z,11.63
2022-11-14T16:46:15.663Z,11.56
2022-11-14T16:48:42.011Z,11.49
2022-11-14T16:51:33.041Z,11.42
2022-11-14T16:53:34.747Z,11.36
2022-11-14T16:56:01.105Z,11.32
2022-11-14T16:58:27.430Z,11.30
2022-11-14T17:00:53.833Z,11.27
2022-11-14T17:03:20.203Z,11.25
2022-11-14T17:05:46.598Z,11.21
2022-11-14T17:08:13.030Z,11.19
2022-11-14T17:10:39.264Z,11.17
2022-11-14T17:13:05.628Z,11.12
2022-11-14T17:15:31.968Z,11.05
2022-11-14T17:17:58.333Z,11.02
2022-11-14T17:20:24.717Z,11.00
2022-11-14T17:22:51.058Z,10.98
2022-11-14T17:25:17.382Z,10.94
2022-11-14T17:27:43.747Z,10.89
2022-11-14T17:30:10.148Z,10.84
2022-11-14T17:32:36.518Z,10.80
2022-11-14T17:35:02.843Z,10.78
2022-11-14T17:37:29.177Z,10.77
2022-11-14T17:39:55.501Z,10.76
2022-11-14T17:42:21.860Z,10.72
2022-11-14T17:44:48.235Z,10.69
2022-11-14T17:47:14.624Z,10.66
2022-11-14T17:49:40.990Z,10.63
2022-11-14T17:52:07.365Z,10.60
2022-11-14T17:54:33.680Z,10.58
2022-11-14T17:57:00.017Z,10.56
2022-11-14T17:59:26.374Z,10.54
2022-11-14T18:01:52.821Z,10.53
2022-11-14T18:04:19.108Z,10.52
2022-11-14T18:06:45.465Z,10.47
2022-11-14T18:09:14.412Z,10.46
2022-11-14T18:11:38.327Z,10.43
2022-11-14T18:14:04.595Z,10.40
2022-11-14T18:16:50.497Z,10.39
2022-11-14T18:18:57.359Z,10.37
2022-11-14T18:21:23.725Z,10.35
2022-11-14T18:23:50.047Z,10.38
2022-11-14T18:26:16.374Z,10.39
2022-11-14T18:28:42.736Z,10.36
2022-11-14T18:31:09.058Z,10.31
2022-11-14T18:33:35.376Z,10.29
2022-11-14T18:36:01.739Z,10.27
2022-11-14T18:38:28.271Z,10.21
2022-11-14T18:40:57.290Z,10.18
2022-11-14T18:43:20.945Z,10.16
2022-11-14T18:45:47.294Z,10.13
2022-11-14T18:48:13.627Z,10.12
2022-11-14T18:50:39.997Z,10.09
2022-11-14T18:53:06.334Z,10.07
2022-11-14T18:55:32.661Z,10.04
2022-11-14T18:57:59.022Z,10.03
2022-11-14T19:00:25.395Z,10.00
2022-11-14T19:02:51.717Z,10.03
2022-11-14T19:05:18.048Z,10.02
2022-11-14T19:07:44.410Z,9.96
2022-11-14T19:10:10.794Z,9.96
2022-11-14T19:12:37.119Z,9.91
2022-11-14T19:15:03.504Z,9.89
2022-11-14T19:17:29.848Z,9.84
2022-11-14T19:19:56.197Z,9.82
2022-11-14T19:22:22.553Z,9.76
2022-11-14T19:24:48.883Z,9.73
2022-11-14T19:27:15.285Z,9.72
2022-11-14T19:29:41.642Z,9.68
2022-11-14T19:32:07.993Z,9.65
2022-11-14T19:34:34.348Z,9.61
2022-11-14T19:37:01.428Z,9.57
2022-11-14T19:39:27.004Z,9.54
2022-11-14T19:41:53.423Z,9.51
2022-11-14T19:44:19.793Z,9.48
2022-11-14T19:46:48.078Z,9.45
2022-11-14T19:49:12.504Z,9.42
2022-11-14T19:51:38.817Z,9.41
2022-11-14T19:54:05.192Z,9.38
2022-11-14T19:56:31.530Z,9.35
2022-11-14T19:58:57.856Z,9.32
2022-11-14T20:01:24.319Z,9.28
2022-11-14T20:03:50.658Z,9.25
2022-11-14T20:06:17.017Z,9.21
2022-11-14T20:08:43.385Z,9.16
2022-11-14T20:11:09.704Z,9.13
2022-11-14T20:13:36.104Z,9.07
2022-11-14T20:16:02.398Z,9.02
2022-11-14T20:18:28.763Z,9.04
2022-11-14T20:20:55.187Z,9.05
2022-11-14T20:23:21.507Z,9.05
2022-11-14T20:25:47.908Z,9.02
2022-11-14T20:28:14.215Z,9.03
2022-11-14T20:30:40.532Z,9.00
2022-11-14T20:33:06.885Z,8.96
2022-11-14T20:35:33.251Z,8.95
2022-11-14T20:38:04.343Z,8.94
2022-11-14T20:40:25.973Z,8.95
2022-11-14T20:42:52.332Z,8.94
2022-11-14T20:45:19.886Z,8.93
2022-11-14T20:47:45.096Z,8.90
2022-11-14T20:50:11.530Z,8.89
2022-11-14T20:52:37.944Z,8.88
2022-11-14T20:55:08.918Z,8.86
2022-11-14T20:57:30.629Z,8.82
2022-11-14T20:59:57.023Z,8.81
2022-11-14T21:02:23.383Z,8.79
2022-11-14T21:04:49.689Z,8.75
2022-11-14T21:07:16.090Z,8.72
2022-11-14T21:09:42.383Z,8.68
2022-11-14T21:12:08.757Z,8.67
2022-11-14T21:14:35.175Z,8.64
2022-11-14T21:17:01.545Z,8.65
2022-11-14T21:19:27.894Z,8.61
2022-11-14T21:21:54.222Z,8.57
2022-11-14T21:24:20.573Z,8.55
2022-11-14T21:26:46.935Z,8.52
2022-11-14T21:29:13.386Z,8.48
2022-11-14T21:31:39.743Z,8.41
2022-11-14T21:34:06.138Z,8.38
2022-11-14T21:36:47.888Z,8.37
2022-11-14T21:38:58.808Z,8.38
2022-11-14T21:41:25.216Z,8.35
2022-11-14T21:43:51.566Z,8.30
2022-11-14T21:46:17.929Z,8.29
2022-11-14T21:48:44.291Z,8.30
2022-11-14T21:51:10.610Z,8.28
2022-11-14T21:53:36.932Z,8.27
2022-11-14T21:56:03.297Z,8.25
2022-11-14T21:58:29.647Z,8.26
2022-11-14T22:00:55.974Z,8.24
2022-11-14T22:03:22.327Z,8.20
2022-11-14T22:05:48.652Z,8.16
2022-11-14T22:08:15.000Z,8.13
2022-11-14T22:10:41.334Z,8.10
2022-11-14T22:13:07.650Z,8.11
2022-11-14T22:15:33.984Z,8.10
2022-11-14T22:18:00.337Z,8.11
2022-11-14T22:20:26.675Z,8.11
2022-11-14T22:22:52.986Z,8.10
2022-11-14T22:25:19.342Z,8.11
2022-11-14T22:27:45.696Z,8.07
2022-11-14T22:30:12.051Z,8.02
2022-11-14T22:32:38.377Z,7.96
2022-11-14T22:35:04.774Z,7.95
2022-11-14T22:37:31.086Z,7.95
2022-11-14T22:39:57.508Z,7.92
2022-11-14T22:42:23.882Z,7.89
2022-11-14T22:44:50.242Z,7.88
2022-11-14T22:47:16.555Z,7.87
2022-11-14T22:49:42.881Z,7.85
2022-11-14T22:52:09.261Z,7.81
2022-11-14T22:54:35.538Z,7.78
2022-11-14T22:57:01.893Z,7.76
2022-11-14T22:59:28.240Z,7.72
2022-11-14T23:01:54.598Z,7.72
2022-11-14T23:04:20.947Z,7.71
2022-11-14T23:06:47.398Z,7.68
2022-11-14T23:09:13.702Z,7.65
2022-11-14T23:11:40.061Z,7.63
2022-11-14T23:14:06.431Z,7.61
2022-11-14T23:16:32.872Z,7.60
2022-11-14T23:18:59.239Z,7.56
2022-11-14T23:21:25.594Z,7.55
2022-11-14T23:23:51.916Z,7.53
2022-11-14T23:26:18.293Z,7.53
2022-11-14T23:28:44.604Z,7.52
2022-11-14T23:31:10.920Z,7.50
2022-11-14T23:33:37.244Z,7.46
2022-11-14T23:36:03.617Z,7.45
2022-11-14T23:38:29.945Z,7.43
2022-11-14T23:40:56.321Z,7.41
2022-11-14T23:43:22.683Z,7.34
2022-11-14T23:45:49.037Z,7.32
2022-11-14T23:48:15.384Z,7.32
2022-11-14T23:50:41.709Z,7.32
2022-11-14T23:53:08.016Z,7.31
2022-11-14T23:55:34.341Z,7.31
2022-11-14T23:58:00.700Z,7.29
